createdAt,value
2022-12-12T00:00:21.293Z,7.93
2022-12-12T00:05:42.269Z,7.00
2022-12-12T00:11:02.405Z,8.40
2022-12-12T00:16:22.647Z,9.03
2022-12-12T00:21:42.663Z,8.27
2022-12-12T00:27:02.914Z,7.43
2022-12-12T00:32:23.148Z,6.83
2022-12-12T00:37:43.235Z,8.27
2022-12-12T00:43:03.360Z,8.77
2022-12-12T00:48:23.565Z,7.37
2022-12-12T00:53:43.710Z,7.23
2022-12-12T00:59:03.810Z,8.07
2022-12-12T01:04:23.926Z,7.67
2022-12-12T01:09:44.167Z,9.27
2022-12-12T01:15:04.154Z,8.43
2022-12-12T01:20:24.328Z,8.37
2022-12-12T01:25:44.465Z,8.13
2022-12-12T01:31:04.771Z,7.73
2022-12-12T01:36:24.994Z,7.53
2022-12-12T01:41:45.119Z,6.97
2022-12-12T01:47:05.349Z,7.40
2022-12-12T01:52:25.567Z,6.87
2022-12-12T01:57:45.825Z,7.30
2022-12-12T02:03:05.927Z,6.30
2022-12-12T02:08:26.272Z,7.97
2022-12-12T02:13:46.227Z,6.97
2022-12-12T02:19:06.499Z,6.90
2022-12-12T02:24:26.610Z,7.73
2022-12-12T02:29:46.743Z,6.63
2022-12-12T02:35:06.881Z,7.83
2022-12-12T02:40:26.975Z,7.07
2022-12-12T02:45:47.236Z,7.80
2022-12-12T02:51:07.430Z,7.50
2022-12-12T02:56:27.680Z,6.77
2022-12-12T03:01:47.861Z,7.10
2022-12-12T03:07:07.827Z,6.60
2022-12-12T03:12:28.036Z,7.70
2022-12-12T03:17:48.141Z,7.17
2022-12-12T03:23:08.369Z,7.07
2022-12-12T03:28:28.795Z,8.10
2022-12-12T03:33:48.973Z,6.80
2022-12-12T03:39:09.251Z,6.60
2022-12-12T03:44:29.406Z,6.90
2022-12-12T03:49:49.541Z,7.57
2022-12-12T03:55:09.868Z,7.43
2022-12-12T04:00:29.808Z,6.87
2022-12-12T04:05:50.043Z,8.23
2022-12-12T04:11:10.160Z,6.60
2022-12-12T04:16:30.293Z,6.60
2022-12-12T04:21:50.348Z,7.53
2022-12-12T04:27:10.605Z,6.63
2022-12-12T04:32:30.635Z,7.50
2022-12-12T04:37:50.845Z,6.60
2022-12-12T04:43:10.890Z,7.43
2022-12-12T04:48:33.367Z,6.97
2022-12-12T04:53:57.150Z,6.37
2022-12-12T04:59:17.262Z,7.53
2022-12-12T05:04:37.482Z,6.57
2022-12-12T05:09:57.731Z,7.17
2022-12-12T05:15:17.803Z,7.20
2022-12-12T05:20:37.883Z,6.53
2022-12-12T05:25:58.082Z,6.70
2022-12-12T05:31:18.377Z,7.23
2022-12-12T05:36:38.622Z,7.50
2022-12-12T05:41:58.681Z,6.47
2022-12-12T05:47:18.812Z,6.43
2022-12-12T05:52:39.116Z,6.80
2022-12-12T05:57:59.257Z,5.83
2022-12-12T06:03:19.407Z,6.97
2022-12-12T06:08:39.712Z,6.10
2022-12-12T06:13:59.738Z,6.60
2022-12-12T06:19:19.897Z,5.87
2022-12-12T06:24:40.066Z,6.00
2022-12-12T06:30:00.187Z,6.73
2022-12-12T06:35:20.279Z,6.13
2022-12-12T06:40:40.402Z,6.97
2022-12-12T06:46:00.579Z,7.07
2022-12-12T06:51:20.668Z,6.40
2022-12-12T06:56:46.202Z,6.70
2022-12-12T07:02:07.857Z,6.47
2022-12-12T07:07:27.806Z,6.63
2022-12-12T07:12:48.172Z,6.37
2022-12-12T07:18:08.384Z,6.30
2022-12-12T07:23:28.625Z,5.37
2022-12-12T07:28:48.806Z,5.60
2022-12-12T07:34:09.078Z,6.77
2022-12-12T07:39:29.196Z,6.60
2022-12-12T07:44:49.405Z,6.77
2022-12-12T07:50:09.562Z,7.00
2022-12-12T07:55:29.851Z,6.63
2022-12-12T08:00:49.898Z,7.03
2022-12-12T08:06:10.058Z,7.13
2022-12-12T08:11:30.134Z,6.40
2022-12-12T08:16:50.385Z,6.40
2022-12-12T08:22:10.421Z,6.90
2022-12-12T08:27:30.712Z,6.20
2022-12-12T08:32:50.835Z,6.30
2022-12-12T08:38:10.983Z,7.10
2022-12-12T08:43:31.122Z,7.37
2022-12-12T08:48:51.465Z,6.00
2022-12-12T08:54:11.493Z,6.63
2022-12-12T08:59:31.868Z,6.83
2022-12-12T09:04:51.841Z,6.37
2022-12-12T09:10:12.152Z,5.93
2022-12-12T09:15:32.229Z,7.33
2022-12-12T09:20:52.617Z,6.30
2022-12-12T09:26:12.677Z,8.23
2022-12-12T09:31:32.957Z,7.10
2022-12-12T09:36:53.082Z,9.43
2022-12-12T09:42:13.190Z,6.23
2022-12-12T09:47:33.341Z,7.57
2022-12-12T09:52:53.496Z,6.90
2022-12-12T09:58:13.656Z,10.33
2022-12-12T10:03:33.839Z,7.43
2022-12-12T10:08:54.100Z,7.77
2022-12-12T10:14:14.132Z,7.00
2022-12-12T10:19:34.259Z,5.97
2022-12-12T10:24:54.356Z,6.20
2022-12-12T10:30:14.823Z,8.30
2022-12-12T10:35:35.246Z,6.73
2022-12-12T10:40:55.500Z,7.50
2022-12-12T10:46:15.795Z,5.90
2022-12-12T10:51:35.842Z,9.47
2022-12-12T10:56:55.919Z,6.10
2022-12-12T11:02:16.165Z,9.30
2022-12-12T11:07:36.323Z,9.43
2022-12-12T11:12:56.362Z,6.00
2022-12-12T11:18:16.528Z,8.20
2022-12-12T11:23:36.773Z,6.77
2022-12-12T11:28:56.856Z,11.80
2022-12-12T11:34:17.003Z,9.07
2022-12-12T11:39:37.024Z,7.93
2022-12-12T11:44:57.186Z,9.03
2022-12-12T11:50:17.368Z,8.00
2022-12-12T11:55:37.535Z,6.80
2022-12-12T12:00:57.737Z,6.30
2022-12-12T12:06:17.973Z,7.27
2022-12-12T12:11:38.021Z,5.67
2022-12-12T12:16:58.145Z,6.90
2022-12-12T12:22:18.224Z,6.50
2022-12-12T12:27:38.338Z,5.80
2022-12-12T12:32:58.454Z,5.93
2022-12-12T12:38:18.719Z,6.50
2022-12-12T12:43:38.803Z,6.10
2022-12-12T12:48:59.050Z,5.50
2022-12-12T12:54:19.114Z,5.47
2022-12-12T12:59:39.181Z,8.00
2022-12-12T13:04:59.404Z,6.80
2022-12-12T13:10:19.616Z,5.20
2022-12-12T13:15:39.824Z,7.47
2022-12-12T13:20:59.930Z,4.60
2022-12-12T13:26:20.183Z,7.87
2022-12-12T13:31:40.558Z,5.70
2022-12-12T13:37:00.586Z,5.53
2022-12-12T13:42:20.693Z,5.90
2022-12-12T13:47:40.808Z,6.30
2022-12-12T13:53:01.145Z,7.57
2022-12-12T13:58:21.240Z,5.43
2022-12-12T14:03:41.402Z,5.77
2022-12-12T14:09:01.474Z,5.40
2022-12-12T14:14:21.592Z,4.77
2022-12-12T14:19:42.836Z,5.43
2022-12-12T14:25:02.887Z,6.67
2022-12-12T14:30:23.142Z,5.80
2022-12-12T14:35:43.349Z,5.73
2022-12-12T14:41:03.421Z,5.50
2022-12-12T14:46:23.670Z,7.07
2022-12-12T14:51:43.747Z,4.93
2022-12-12T14:57:03.952Z,5.83
2022-12-12T15:02:24.100Z,4.40
2022-12-12T15:07:44.221Z,4.97
2022-12-12T15:13:04.433Z,4.53
2022-12-12T15:18:24.557Z,5.40
2022-12-12T15:23:44.692Z,4.80
2022-12-12T15:29:04.873Z,5.50
2022-12-12T15:34:25.170Z,4.83
2022-12-12T15:39:45.388Z,5.10
2022-12-12T15:45:05.534Z,5.30
2022-12-12T15:50:25.829Z,4.93
2022-12-12T15:55:45.919Z,5.30
2022-12-12T16:01:06.206Z,5.10
2022-12-12T16:06:26.178Z,4.97
2022-12-12T16:11:46.444Z,3.83
2022-12-12T16:17:06.685Z,5.00
2022-12-12T16:22:26.857Z,5.03
2022-12-12T16:27:47.015Z,4.00
2022-12-12T16:33:07.227Z,5.00
2022-12-12T16:38:27.349Z,4.70
2022-12-12T16:43:47.379Z,4.27
2022-12-12T16:49:10.598Z,4.90
2022-12-12T16:54:35.256Z,5.40
2022-12-12T16:59:55.284Z,4.70
2022-12-12T17:05:15.381Z,5.00
2022-12-12T17:10:35.362Z,4.17
2022-12-12T17:15:55.540Z,6.13
2022-12-12T17:21:15.533Z,4.60
2022-12-12T17:26:35.638Z,4.73
2022-12-12T17:31:55.566Z,4.83
2022-12-12T17:37:15.838Z,3.70
2022-12-12T17:42:35.997Z,3.97
2022-12-12T17:47:56.102Z,4.33
2022-12-12T17:53:16.173Z,4.30
2022-12-12T17:58:36.343Z,4.30
2022-12-12T18:03:56.355Z,4.00
2022-12-12T18:09:16.412Z,4.13
2022-12-12T18:14:36.443Z,4.57
2022-12-12T18:19:56.616Z,4.00
2022-12-12T18:25:16.747Z,3.93
2022-12-12T18:30:36.843Z,4.00
2022-12-12T18:35:56.942Z,4.50
2022-12-12T18:41:17.203Z,4.40
2022-12-12T18:46:42.219Z,4.57
2022-12-12T18:52:03.018Z,4.30
2022-12-12T18:57:23.027Z,4.53
2022-12-12T19:02:43.279Z,3.97
2022-12-12T19:08:03.487Z,4.03
2022-12-12T19:13:23.567Z,3.90
2022-12-12T19:18:43.885Z,6.07
2022-12-12T19:24:03.931Z,3.77
2022-12-12T19:29:24.060Z,3.67
2022-12-12T19:34:44.047Z,4.07
2022-12-12T19:40:04.058Z,5.00
2022-12-12T19:45:24.262Z,4.43
2022-12-12T19:50:44.260Z,5.67
2022-12-12T19:56:04.374Z,4.37
2022-12-12T20:01:24.625Z,4.30
2022-12-12T20:06:44.962Z,4.50
2022-12-12T20:12:05.193Z,4.67
2022-12-12T20:17:25.420Z,4.57
2022-12-12T20:22:45.556Z,4.37
2022-12-12T20:28:05.673Z,4.60
2022-12-12T20:33:25.754Z,6.97
2022-12-12T20:38:46.065Z,6.90
2022-12-12T20:44:06.160Z,4.40
2022-12-12T20:49:26.334Z,4.97
2022-12-12T20:54:46.495Z,4.40
2022-12-12T21:00:06.667Z,4.57
2022-12-12T21:05:26.715Z,4.73
2022-12-12T21:10:46.855Z,4.40
2022-12-12T21:16:07.039Z,4.50
2022-12-12T21:21:27.321Z,5.20
2022-12-12T21:26:47.363Z,4.33
2022-12-12T21:32:07.591Z,4.23
2022-12-12T21:37:27.626Z,4.63
2022-12-12T21:42:47.768Z,5.60
2022-12-12T21:48:07.869Z,4.80
2022-12-12T21:53:28.146Z,4.73
2022-12-12T21:58:48.285Z,4.50
2022-12-12T22:04:08.494Z,4.70
2022-12-12T22:09:28.537Z,4.67
2022-12-12T22:14:48.710Z,4.00
2022-12-12T22:20:08.732Z,6.43
2022-12-12T22:25:28.931Z,3.90
2022-12-12T22:30:49.034Z,4.23
2022-12-12T22:36:09.107Z,3.60
2022-12-12T22:41:29.237Z,4.87
2022-12-12T22:46:49.585Z,4.63
2022-12-12T22:52:09.474Z,4.80
2022-12-12T22:57:29.688Z,4.33
2022-12-12T23:02:49.796Z,4.50
2022-12-12T23:08:10.094Z,5.30
2022-12-12T23:13:30.171Z,4.80
2022-12-12T23:18:50.435Z,4.50
2022-12-12T23:24:10.546Z,4.17
2022-12-12T23:29:30.750Z,4.43
2022-12-12T23:34:50.793Z,4.47
2022-12-12T23:40:11.033Z,3.87
2022-12-12T23:45:31.272Z,3.70
2022-12-12T23:50:51.310Z,4.13
2022-12-12T23:56:11.463Z,4.40
